sensor_id;sensor_type;location;lat;lon;timestamp;P1;durP1;ratioP1;P2;durP2;ratioP2
25127;SDS011;13107;51.304;6.866;2023-04-15T00:03:09;8.93;;;4.50;;
25127;SDS011;13107;51.304;6.866;2023-04-15T00:07:11;10.70;;;4.45;;
25127;SDS011;13107;51.304;6.866;2023-04-15T00:11:15;8.63;;;4.80;;
25127;SDS011;13107;51.304;6.866;2023-04-15T00:15:17;10.50;;;4.62;;
25127;SDS011;13107;51.304;6.866;2023-04-15T00:19:19;12.07;;;4.60;;
25127;SDS011;13107;51.304;6.866;2023-04-15T00:23:20;11.00;;;4.40;;
25127;SDS011;13107;51.304;6.866;2023-04-15T00:27:22;9.18;;;4.78;;
25127;SDS011;13107;51.304;6.866;2023-04-15T00:31:24;11.02;;;4.47;;
25127;SDS011;13107;51.304;6.866;2023-04-15T00:35:26;8.18;;;4.12;;
25127;SDS011;13107;51.304;6.866;2023-04-15T00:39:28;11.10;;;4.68;;
25127;SDS011;13107;51.304;6.866;2023-04-15T00:43:30;8.18;;;4.32;;
25127;SDS011;13107;51.304;6.866;2023-04-15T00:47:31;9.52;;;4.28;;
25127;SDS011;13107;51.304;6.866;2023-04-15T00:51:35;6.75;;;4.00;;
25127;SDS011;13107;51.304;6.866;2023-04-15T00:55:37;7.93;;;4.00;;
25127;SDS011;13107;51.304;6.866;2023-04-15T00:59:40;9.85;;;4.45;;
25127;SDS011;13107;51.304;6.866;2023-04-15T01:03:41;9.10;;;3.75;;
25127;SDS011;13107;51.304;6.866;2023-04-15T01:07:43;10.32;;;4.22;;
25127;SDS011;13107;51.304;6.866;2023-04-15T01:11:45;5.85;;;3.95;;
25127;SDS011;13107;51.304;6.866;2023-04-15T01:15:47;8.68;;;3.83;;
25127;SDS011;13107;51.304;6.866;2023-04-15T01:19:49;8.40;;;4.00;;
25127;SDS011;13107;51.304;6.866;2023-04-15T01:23:52;10.10;;;4.07;;
25127;SDS011;13107;51.304;6.866;2023-04-15T01:27:57;10.18;;;4.03;;
25127;SDS011;13107;51.304;6.866;2023-04-15T01:31:59;5.45;;;3.30;;
25127;SDS011;13107;51.304;6.866;2023-04-15T01:36:01;8.75;;;4.05;;
25127;SDS011;13107;51.304;6.866;2023-04-15T01:40:04;7.87;;;4.35;;
25127;SDS011;13107;51.304;6.866;2023-04-15T01:44:06;6.12;;;4.20;;
25127;SDS011;13107;51.304;6.866;2023-04-15T01:48:08;11.93;;;4.30;;
25127;SDS011;13107;51.304;6.866;2023-04-15T01:52:09;7.47;;;4.18;;
25127;SDS011;13107;51.304;6.866;2023-04-15T01:56:11;7.45;;;4.10;;
25127;SDS011;13107;51.304;6.866;2023-04-15T02:00:16;8.65;;;4.10;;
25127;SDS011;13107;51.304;6.866;2023-04-15T02:04:18;8.70;;;4.10;;
25127;SDS011;13107;51.304;6.866;2023-04-15T02:08:20;11.82;;;4.30;;
25127;SDS011;13107;51.304;6.866;2023-04-15T02:12:21;6.90;;;3.75;;
25127;SDS011;13107;51.304;6.866;2023-04-15T02:16:23;6.62;;;3.55;;
25127;SDS011;13107;51.304;6.866;2023-04-15T02:20:25;9.48;;;4.37;;
25127;SDS011;13107;51.304;6.866;2023-04-15T02:24:27;9.95;;;4.12;;
25127;SDS011;13107;51.304;6.866;2023-04-15T02:28:29;9.63;;;4.47;;
25127;SDS011;13107;51.304;6.866;2023-04-15T02:32:31;8.25;;;4.30;;
25127;SDS011;13107;51.304;6.866;2023-04-15T02:36:33;9.85;;;4.57;;
25127;SDS011;13107;51.304;6.866;2023-04-15T02:40:35;8.63;;;4.47;;
25127;SDS011;13107;51.304;6.866;2023-04-15T02:44:37;7.20;;;4.80;;
25127;SDS011;13107;51.304;6.866;2023-04-15T02:48:39;9.43;;;4.30;;
25127;SDS011;13107;51.304;6.866;2023-04-15T02:52:41;6.68;;;4.85;;
25127;SDS011;13107;51.304;6.866;2023-04-15T02:56:43;9.40;;;4.82;;
25127;SDS011;13107;51.304;6.866;2023-04-15T03:00:44;7.93;;;4.85;;
25127;SDS011;13107;51.304;6.866;2023-04-15T03:04:46;8.10;;;5.37;;
25127;SDS011;13107;51.304;6.866;2023-04-15T03:08:49;9.15;;;5.20;;
25127;SDS011;13107;51.304;6.866;2023-04-15T03:12:50;9.52;;;5.32;;
25127;SDS011;13107;51.304;6.866;2023-04-15T03:16:52;6.93;;;4.30;;
25127;SDS011;13107;51.304;6.866;2023-04-15T03:20:54;7.00;;;4.65;;
25127;SDS011;13107;51.304;6.866;2023-04-15T03:24:55;8.85;;;4.97;;
25127;SDS011;13107;51.304;6.866;2023-04-15T03:28:57;6.80;;;4.32;;
25127;SDS011;13107;51.304;6.866;2023-04-15T03:32:59;9.65;;;5.07;;
25127;SDS011;13107;51.304;6.866;2023-04-15T03:37:01;10.40;;;5.35;;
25127;SDS011;13107;51.304;6.866;2023-04-15T03:41:03;8.60;;;4.97;;
25127;SDS011;13107;51.304;6.866;2023-04-15T03:45:05;8.05;;;4.85;;
25127;SDS011;13107;51.304;6.866;2023-04-15T03:49:07;8.50;;;5.15;;
25127;SDS011;13107;51.304;6.866;2023-04-15T03:53:09;7.40;;;4.95;;
25127;SDS011;13107;51.304;6.866;2023-04-15T03:57:11;7.35;;;4.82;;
25127;SDS011;13107;51.304;6.866;2023-04-15T04:01:12;11.65;;;5.57;;
25127;SDS011;13107;51.304;6.866;2023-04-15T04:05:14;13.20;;;7.53;;
25127;SDS011;13107;51.304;6.866;2023-04-15T04:09:16;12.13;;;8.73;;
25127;SDS011;13107;51.304;6.866;2023-04-15T04:13:17;12.70;;;8.43;;
25127;SDS011;13107;51.304;6.866;2023-04-15T04:17:19;14.13;;;8.85;;
25127;SDS011;13107;51.304;6.866;2023-04-15T04:21:21;11.93;;;8.20;;
25127;SDS011;13107;51.304;6.866;2023-04-15T04:25:23;13.02;;;8.07;;
25127;SDS011;13107;51.304;6.866;2023-04-15T04:29:24;11.43;;;7.47;;
25127;SDS011;13107;51.304;6.866;2023-04-15T04:33:27;9.77;;;6.28;;
25127;SDS011;13107;51.304;6.866;2023-04-15T04:37:28;7.75;;;4.35;;
25127;SDS011;13107;51.304;6.866;2023-04-15T04:41:30;7.03;;;5.35;;
25127;SDS011;13107;51.304;6.866;2023-04-15T04:45:32;8.65;;;5.78;;
25127;SDS011;13107;51.304;6.866;2023-04-15T04:49:34;9.45;;;4.95;;
25127;SDS011;13107;51.304;6.866;2023-04-15T04:53:35;8.63;;;5.72;;
25127;SDS011;13107;51.304;6.866;2023-04-15T04:57:38;11.32;;;7.05;;
25127;SDS011;13107;51.304;6.866;2023-04-15T05:01:39;13.50;;;9.27;;
25127;SDS011;13107;51.304;6.866;2023-04-15T05:05:42;17.00;;;10.23;;
25127;SDS011;13107;51.304;6.866;2023-04-15T05:09:43;18.23;;;11.15;;
25127;SDS011;13107;51.304;6.866;2023-04-15T05:13:45;15.65;;;10.45;;
25127;SDS011;13107;51.304;6.866;2023-04-15T05:17:47;17.45;;;11.02;;
25127;SDS011;13107;51.304;6.866;2023-04-15T05:21:49;16.37;;;10.90;;
25127;SDS011;13107;51.304;6.866;2023-04-15T05:25:51;18.33;;;11.50;;
25127;SDS011;13107;51.304;6.866;2023-04-15T05:29:52;14.30;;;11.30;;
25127;SDS011;13107;51.304;6.866;2023-04-15T05:33:54;17.08;;;11.98;;
25127;SDS011;13107;51.304;6.866;2023-04-15T05:37:56;18.08;;;11.60;;
25127;SDS011;13107;51.304;6.866;2023-04-15T05:41:57;18.37;;;11.60;;
25127;SDS011;13107;51.304;6.866;2023-04-15T05:46:00;20.70;;;12.05;;
25127;SDS011;13107;51.304;6.866;2023-04-15T05:50:01;16.85;;;12.25;;
25127;SDS011;13107;51.304;6.866;2023-04-15T05:54:04;17.67;;;12.25;;
25127;SDS011;13107;51.304;6.866;2023-04-15T05:58:05;17.37;;;11.35;;
25127;SDS011;13107;51.304;6.866;2023-04-15T06:02:08;16.60;;;12.25;;
25127;SDS011;13107;51.304;6.866;2023-04-15T06:06:10;17.23;;;12.50;;
25127;SDS011;13107;51.304;6.866;2023-04-15T06:10:12;12.35;;;10.57;;
25127;SDS011;13107;51.304;6.866;2023-04-15T06:14:14;16.08;;;11.55;;
25127;SDS011;13107;51.304;6.866;2023-04-15T06:18:15;15.80;;;11.38;;
25127;SDS011;13107;51.304;6.866;2023-04-15T06:22:17;13.13;;;10.27;;
25127;SDS011;13107;51.304;6.866;2023-04-15T06:26:19;15.88;;;12.02;;
25127;SDS011;13107;51.304;6.866;2023-04-15T06:30:20;14.63;;;11.43;;
25127;SDS011;13107;51.304;6.866;2023-04-15T06:34:24;15.98;;;11.40;;
25127;SDS011;13107;51.304;6.866;2023-04-15T06:38:26;15.35;;;11.45;;
25127;SDS011;13107;51.304;6.866;2023-04-15T06:42:28;14.93;;;11.05;;
25127;SDS011;13107;51.304;6.866;2023-04-15T06:46:29;15.20;;;11.80;;
25127;SDS011;13107;51.304;6.866;2023-04-15T06:50:31;16.80;;;11.35;;
25127;SDS011;13107;51.304;6.866;2023-04-15T06:54:33;14.85;;;10.43;;
25127;SDS011;13107;51.304;6.866;2023-04-15T06:58:35;16.17;;;12.32;;
25127;SDS011;13107;51.304;6.866;2023-04-15T07:02:37;15.25;;;10.65;;
25127;SDS011;13107;51.304;6.866;2023-04-15T07:06:39;13.00;;;10.30;;
25127;SDS011;13107;51.304;6.866;2023-04-15T07:10:42;14.10;;;10.82;;
25127;SDS011;13107;51.304;6.866;2023-04-15T07:14:43;11.98;;;9.23;;
25127;SDS011;13107;51.304;6.866;2023-04-15T07:18:45;11.40;;;9.00;;
25127;SDS011;13107;51.304;6.866;2023-04-15T07:22:47;12.65;;;8.70;;
25127;SDS011;13107;51.304;6.866;2023-04-15T07:26:48;13.13;;;8.65;;
25127;SDS011;13107;51.304;6.866;2023-04-15T07:30:50;12.98;;;9.32;;
25127;SDS011;13107;51.304;6.866;2023-04-15T07:34:52;10.20;;;8.55;;
25127;SDS011;13107;51.304;6.866;2023-04-15T07:38:54;12.48;;;8.68;;
25127;SDS011;13107;51.304;6.866;2023-04-15T07:42:55;9.77;;;8.05;;
25127;SDS011;13107;51.304;6.866;2023-04-15T07:46:58;10.20;;;7.37;;
25127;SDS011;13107;51.304;6.866;2023-04-15T07:51:00;9.40;;;7.30;;
25127;SDS011;13107;51.304;6.866;2023-04-15T07:55:06;9.13;;;7.95;;
25127;SDS011;13107;51.304;6.866;2023-04-15T07:59:08;11.45;;;8.25;;
25127;SDS011;13107;51.304;6.866;2023-04-15T08:03:11;12.25;;;8.32;;
25127;SDS011;13107;51.304;6.866;2023-04-15T08:07:13;12.25;;;8.52;;
25127;SDS011;13107;51.304;6.866;2023-04-15T08:11:14;12.13;;;8.20;;
25127;SDS011;13107;51.304;6.866;2023-04-15T08:15:17;10.00;;;7.55;;
25127;SDS011;13107;51.304;6.866;2023-04-15T08:19:18;9.70;;;6.50;;
25127;SDS011;13107;51.304;6.866;2023-04-15T08:23:20;9.82;;;7.03;;
25127;SDS011;13107;51.304;6.866;2023-04-15T08:27:22;8.15;;;5.95;;
25127;SDS011;13107;51.304;6.866;2023-04-15T08:31:25;7.20;;;5.25;;
25127;SDS011;13107;51.304;6.866;2023-04-15T08:35:29;6.65;;;4.90;;
25127;SDS011;13107;51.304;6.866;2023-04-15T08:39:31;5.87;;;4.32;;
25127;SDS011;13107;51.304;6.866;2023-04-15T08:43:33;6.43;;;4.72;;
25127;SDS011;13107;51.304;6.866;2023-04-15T08:47:37;5.50;;;4.47;;
25127;SDS011;13107;51.304;6.866;2023-04-15T08:51:40;6.62;;;4.80;;
25127;SDS011;13107;51.304;6.866;2023-04-15T08:55:43;8.48;;;6.25;;
25127;SDS011;13107;51.304;6.866;2023-04-15T08:59:46;8.50;;;5.70;;
25127;SDS011;13107;51.304;6.866;2023-04-15T09:03:48;7.00;;;4.80;;
25127;SDS011;13107;51.304;6.866;2023-04-15T09:07:51;6.55;;;4.90;;
25127;SDS011;13107;51.304;6.866;2023-04-15T09:11:52;8.18;;;4.07;;
25127;SDS011;13107;51.304;6.866;2023-04-15T09:15:54;5.43;;;4.00;;
25127;SDS011;13107;51.304;6.866;2023-04-15T09:20:06;5.70;;;3.58;;
25127;SDS011;13107;51.304;6.866;2023-04-15T09:24:09;3.83;;;3.12;;
25127;SDS011;13107;51.304;6.866;2023-04-15T09:28:11;6.10;;;3.87;;
25127;SDS011;13107;51.304;6.866;2023-04-15T09:32:13;3.53;;;2.97;;
25127;SDS011;13107;51.304;6.866;2023-04-15T09:36:16;4.32;;;2.85;;
25127;SDS011;13107;51.304;6.866;2023-04-15T09:40:33;3.75;;;3.10;;
25127;SDS011;13107;51.304;6.866;2023-04-15T09:44:36;3.78;;;2.55;;
25127;SDS011;13107;51.304;6.866;2023-04-15T09:48:37;3.62;;;2.70;;
25127;SDS011;13107;51.304;6.866;2023-04-15T09:52:42;4.43;;;3.58;;
25127;SDS011;13107;51.304;6.866;2023-04-15T09:56:44;4.72;;;3.87;;
25127;SDS011;13107;51.304;6.866;2023-04-15T10:00:47;5.10;;;4.18;;
25127;SDS011;13107;51.304;6.866;2023-04-15T10:04:50;4.78;;;3.83;;
25127;SDS011;13107;51.304;6.866;2023-04-15T10:08:54;4.65;;;4.05;;
25127;SDS011;13107;51.304;6.866;2023-04-15T10:12:56;6.90;;;5.43;;
25127;SDS011;13107;51.304;6.866;2023-04-15T10:16:59;5.65;;;5.15;;
25127;SDS011;13107;51.304;6.866;2023-04-15T10:21:03;5.68;;;5.18;;
25127;SDS011;13107;51.304;6.866;2023-04-15T10:25:06;6.07;;;5.37;;
25127;SDS011;13107;51.304;6.866;2023-04-15T10:29:09;6.90;;;6.20;;
25127;SDS011;13107;51.304;6.866;2023-04-15T10:33:11;6.15;;;5.50;;
25127;SDS011;13107;51.304;6.866;2023-04-15T10:37:19;6.10;;;5.50;;
25127;SDS011;13107;51.304;6.866;2023-04-15T10:41:23;4.97;;;4.47;;
25127;SDS011;13107;51.304;6.866;2023-04-15T10:45:34;5.50;;;4.35;;
25127;SDS011;13107;51.304;6.866;2023-04-15T10:49:44;6.07;;;3.78;;
25127;SDS011;13107;51.304;6.866;2023-04-15T10:53:50;4.53;;;4.10;;
25127;SDS011;13107;51.304;6.866;2023-04-15T10:58:00;6.18;;;5.37;;
25127;SDS011;13107;51.304;6.866;2023-04-15T11:02:03;7.50;;;5.65;;
25127;SDS011;13107;51.304;6.866;2023-04-15T11:06:06;5.65;;;4.40;;
25127;SDS011;13107;51.304;6.866;2023-04-15T11:14:18;5.72;;;3.80;;
25127;SDS011;13107;51.304;6.866;2023-04-15T11:18:22;4.80;;;3.08;;
25127;SDS011;13107;51.304;6.866;2023-04-15T11:22:28;3.40;;;2.08;;
25127;SDS011;13107;51.304;6.866;2023-04-15T11:26:30;2.80;;;2.20;;
25127;SDS011;13107;51.304;6.866;2023-04-15T11:30:33;2.90;;;2.58;;
25127;SDS011;13107;51.304;6.866;2023-04-15T11:34:37;4.32;;;3.45;;
25127;SDS011;13107;51.304;6.866;2023-04-15T11:38:42;3.80;;;3.20;;
25127;SDS011;13107;51.304;6.866;2023-04-15T11:42:45;3.95;;;3.15;;
25127;SDS011;13107;51.304;6.866;2023-04-15T11:46:50;4.12;;;3.28;;
25127;SDS011;13107;51.304;6.866;2023-04-15T11:50:52;4.18;;;2.80;;
25127;SDS011;13107;51.304;6.866;2023-04-15T11:55:02;3.42;;;2.80;;
25127;SDS011;13107;51.304;6.866;2023-04-15T11:59:04;3.40;;;3.10;;
25127;SDS011;13107;51.304;6.866;2023-04-15T12:03:20;3.45;;;2.58;;
25127;SDS011;13107;51.304;6.866;2023-04-15T12:07:26;5.72;;;2.55;;
25127;SDS011;13107;51.304;6.866;2023-04-15T12:15:40;4.60;;;3.05;;
25127;SDS011;13107;51.304;6.866;2023-04-15T12:19:42;4.07;;;3.28;;
25127;SDS011;13107;51.304;6.866;2023-04-15T12:23:49;4.07;;;3.30;;
25127;SDS011;13107;51.304;6.866;2023-04-15T12:27:50;4.72;;;3.35;;
25127;SDS011;13107;51.304;6.866;2023-04-15T12:36:35;5.00;;;3.10;;
25127;SDS011;13107;51.304;6.866;2023-04-15T12:40:37;6.90;;;3.28;;
25127;SDS011;13107;51.304;6.866;2023-04-15T12:44:39;6.40;;;2.92;;
25127;SDS011;13107;51.304;6.866;2023-04-15T12:48:40;4.20;;;2.83;;
25127;SDS011;13107;51.304;6.866;2023-04-15T12:52:42;3.67;;;2.55;;
25127;SDS011;13107;51.304;6.866;2023-04-15T12:56:45;3.62;;;2.22;;
25127;SDS011;13107;51.304;6.866;2023-04-15T13:00:47;4.35;;;2.58;;
25127;SDS011;13107;51.304;6.866;2023-04-15T13:04:50;2.65;;;2.03;;
25127;SDS011;13107;51.304;6.866;2023-04-15T13:08:52;2.40;;;1.95;;
25127;SDS011;13107;51.304;6.866;2023-04-15T13:12:59;2.90;;;2.17;;
25127;SDS011;13107;51.304;6.866;2023-04-15T13:17:00;3.35;;;2.10;;
25127;SDS011;13107;51.304;6.866;2023-04-15T13:21:04;3.92;;;1.85;;
25127;SDS011;13107;51.304;6.866;2023-04-15T13:25:07;3.72;;;2.60;;
25127;SDS011;13107;51.304;6.866;2023-04-15T13:29:09;2.45;;;2.25;;
25127;SDS011;13107;51.304;6.866;2023-04-15T13:33:12;3.87;;;2.50;;
25127;SDS011;13107;51.304;6.866;2023-04-15T13:37:13;2.87;;;2.33;;
25127;SDS011;13107;51.304;6.866;2023-04-15T13:41:15;4.20;;;2.37;;
25127;SDS011;13107;51.304;6.866;2023-04-15T13:45:17;5.43;;;2.28;;
25127;SDS011;13107;51.304;6.866;2023-04-15T13:49:19;3.40;;;2.33;;
25127;SDS011;13107;51.304;6.866;2023-04-15T13:53:21;4.55;;;2.92;;
25127;SDS011;13107;51.304;6.866;2023-04-15T13:57:39;3.37;;;2.35;;
25127;SDS011;13107;51.304;6.866;2023-04-15T14:01:41;6.07;;;2.67;;
25127;SDS011;13107;51.304;6.866;2023-04-15T14:05:44;3.70;;;2.37;;
25127;SDS011;13107;51.304;6.866;2023-04-15T14:09:45;4.12;;;1.92;;
25127;SDS011;13107;51.304;6.866;2023-04-15T14:13:48;4.87;;;2.30;;
25127;SDS011;13107;51.304;6.866;2023-04-15T14:17:49;2.20;;;1.73;;
25127;SDS011;13107;51.304;6.866;2023-04-15T14:21:51;3.08;;;2.08;;
25127;SDS011;13107;51.304;6.866;2023-04-15T14:25:53;3.08;;;2.00;;
25127;SDS011;13107;51.304;6.866;2023-04-15T14:29:55;4.37;;;2.10;;
25127;SDS011;13107;51.304;6.866;2023-04-15T14:33:57;4.60;;;2.42;;
25127;SDS011;13107;51.304;6.866;2023-04-15T14:37:59;4.43;;;2.17;;
25127;SDS011;13107;51.304;6.866;2023-04-15T14:42:01;5.12;;;2.30;;
25127;SDS011;13107;51.304;6.866;2023-04-15T14:46:02;5.47;;;2.05;;
25127;SDS011;13107;51.304;6.866;2023-04-15T14:50:04;4.15;;;2.10;;
25127;SDS011;13107;51.304;6.866;2023-04-15T14:54:06;5.68;;;2.20;;
25127;SDS011;13107;51.304;6.866;2023-04-15T14:58:08;3.70;;;2.00;;
25127;SDS011;13107;51.304;6.866;2023-04-15T15:02:10;3.25;;;1.90;;
25127;SDS011;13107;51.304;6.866;2023-04-15T15:06:19;4.12;;;2.30;;
25127;SDS011;13107;51.304;6.866;2023-04-15T15:10:21;4.20;;;2.10;;
25127;SDS011;13107;51.304;6.866;2023-04-15T15:14:43;2.72;;;1.80;;
25127;SDS011;13107;51.304;6.866;2023-04-15T15:18:45;2.35;;;1.60;;
25127;SDS011;13107;51.304;6.866;2023-04-15T15:22:47;2.08;;;1.67;;
25127;SDS011;13107;51.304;6.866;2023-04-15T15:26:48;2.50;;;1.83;;
25127;SDS011;13107;51.304;6.866;2023-04-15T15:30:50;2.87;;;2.10;;
25127;SDS011;13107;51.304;6.866;2023-04-15T15:34:52;5.05;;;1.85;;
25127;SDS011;13107;51.304;6.866;2023-04-15T15:38:53;2.67;;;1.95;;
25127;SDS011;13107;51.304;6.866;2023-04-15T15:42:55;5.30;;;2.28;;
25127;SDS011;13107;51.304;6.866;2023-04-15T15:46:57;3.15;;;1.55;;
25127;SDS011;13107;51.304;6.866;2023-04-15T15:50:59;3.28;;;2.30;;
25127;SDS011;13107;51.304;6.866;2023-04-15T15:55:01;4.25;;;2.42;;
25127;SDS011;13107;51.304;6.866;2023-04-15T15:59:03;3.95;;;2.47;;
25127;SDS011;13107;51.304;6.866;2023-04-15T16:03:05;4.93;;;2.40;;
25127;SDS011;13107;51.304;6.866;2023-04-15T16:07:08;5.12;;;2.30;;
25127;SDS011;13107;51.304;6.866;2023-04-15T16:11:11;3.30;;;2.20;;
25127;SDS011;13107;51.304;6.866;2023-04-15T16:15:13;3.83;;;2.00;;
25127;SDS011;13107;51.304;6.866;2023-04-15T16:19:15;4.40;;;2.67;;
25127;SDS011;13107;51.304;6.866;2023-04-15T16:23:17;4.45;;;2.25;;
25127;SDS011;13107;51.304;6.866;2023-04-15T16:27:19;4.60;;;2.50;;
25127;SDS011;13107;51.304;6.866;2023-04-15T16:31:21;3.87;;;2.37;;
25127;SDS011;13107;51.304;6.866;2023-04-15T16:35:23;4.22;;;2.20;;
25127;SDS011;13107;51.304;6.866;2023-04-15T16:39:24;4.55;;;2.35;;
25127;SDS011;13107;51.304;6.866;2023-04-15T16:43:26;5.85;;;2.30;;
25127;SDS011;13107;51.304;6.866;2023-04-15T16:47:29;2.87;;;2.20;;
25127;SDS011;13107;51.304;6.866;2023-04-15T16:51:31;5.20;;;2.67;;
25127;SDS011;13107;51.304;6.866;2023-04-15T16:55:32;5.25;;;2.55;;
25127;SDS011;13107;51.304;6.866;2023-04-15T16:59:34;5.15;;;2.50;;
25127;SDS011;13107;51.304;6.866;2023-04-15T17:03:36;3.83;;;2.42;;
25127;SDS011;13107;51.304;6.866;2023-04-15T17:07:38;6.43;;;3.05;;
25127;SDS011;13107;51.304;6.866;2023-04-15T17:11:40;5.07;;;3.00;;
25127;SDS011;13107;51.304;6.866;2023-04-15T17:15:44;7.43;;;3.05;;
25127;SDS011;13107;51.304;6.866;2023-04-15T17:19:46;6.93;;;3.62;;
25127;SDS011;13107;51.304;6.866;2023-04-15T17:23:47;7.45;;;3.40;;
25127;SDS011;13107;51.304;6.866;2023-04-15T17:27:51;5.85;;;4.75;;
25127;SDS011;13107;51.304;6.866;2023-04-15T17:31:53;9.10;;;4.53;;
25127;SDS011;13107;51.304;6.866;2023-04-15T17:35:56;7.07;;;4.10;;
25127;SDS011;13107;51.304;6.866;2023-04-15T17:39:58;4.85;;;3.70;;
25127;SDS011;13107;51.304;6.866;2023-04-15T17:43:59;9.73;;;5.07;;
25127;SDS011;13107;51.304;6.866;2023-04-15T17:48:01;7.82;;;5.55;;
25127;SDS011;13107;51.304;6.866;2023-04-15T17:52:03;11.48;;;6.65;;
25127;SDS011;13107;51.304;6.866;2023-04-15T17:56:05;11.65;;;5.68;;
25127;SDS011;13107;51.304;6.866;2023-04-15T18:00:07;14.25;;;6.12;;
25127;SDS011;13107;51.304;6.866;2023-04-15T18:04:10;8.23;;;6.15;;
25127;SDS011;13107;51.304;6.866;2023-04-15T18:08:13;10.13;;;5.10;;
25127;SDS011;13107;51.304;6.866;2023-04-15T18:12:14;8.30;;;5.00;;
25127;SDS011;13107;51.304;6.866;2023-04-15T18:16:16;8.75;;;4.90;;
25127;SDS011;13107;51.304;6.866;2023-04-15T18:20:19;11.35;;;4.40;;
25127;SDS011;13107;51.304;6.866;2023-04-15T18:24:21;10.80;;;5.43;;
25127;SDS011;13107;51.304;6.866;2023-04-15T18:28:23;12.90;;;5.30;;
25127;SDS011;13107;51.304;6.866;2023-04-15T18:32:24;13.62;;;5.55;;
25127;SDS011;13107;51.304;6.866;2023-04-15T18:36:32;11.48;;;5.43;;
25127;SDS011;13107;51.304;6.866;2023-04-15T18:40:34;13.07;;;5.40;;
25127;SDS011;13107;51.304;6.866;2023-04-15T18:44:36;13.32;;;5.20;;
25127;SDS011;13107;51.304;6.866;2023-04-15T18:48:38;6.25;;;4.10;;
25127;SDS011;13107;51.304;6.866;2023-04-15T18:52:39;9.68;;;4.72;;
25127;SDS011;13107;51.304;6.866;2023-04-15T18:56:41;10.07;;;4.65;;
25127;SDS011;13107;51.304;6.866;2023-04-15T19:00:43;9.50;;;5.22;;
25127;SDS011;13107;51.304;6.866;2023-04-15T19:04:44;12.55;;;5.93;;
25127;SDS011;13107;51.304;6.866;2023-04-15T19:08:46;12.23;;;5.50;;
25127;SDS011;13107;51.304;6.866;2023-04-15T19:12:48;10.88;;;5.95;;
25127;SDS011;13107;51.304;6.866;2023-04-15T19:16:49;8.63;;;5.45;;
25127;SDS011;13107;51.304;6.866;2023-04-15T19:20:51;14.65;;;5.37;;
25127;SDS011;13107;51.304;6.866;2023-04-15T19:24:55;12.68;;;5.10;;
25127;SDS011;13107;51.304;6.866;2023-04-15T19:28:57;11.38;;;4.53;;
25127;SDS011;13107;51.304;6.866;2023-04-15T19:32:59;12.77;;;4.12;;
25127;SDS011;13107;51.304;6.866;2023-04-15T19:37:01;11.60;;;4.00;;
25127;SDS011;13107;51.304;6.866;2023-04-15T19:41:02;10.73;;;5.28;;
25127;SDS011;13107;51.304;6.866;2023-04-15T19:45:04;12.95;;;5.53;;
25127;SDS011;13107;51.304;6.866;2023-04-15T19:49:06;11.98;;;5.12;;
25127;SDS011;13107;51.304;6.866;2023-04-15T19:53:08;9.63;;;4.50;;
25127;SDS011;13107;51.304;6.866;2023-04-15T19:57:10;10.85;;;4.93;;
25127;SDS011;13107;51.304;6.866;2023-04-15T20:01:12;12.00;;;5.55;;
25127;SDS011;13107;51.304;6.866;2023-04-15T20:05:13;13.02;;;6.00;;
25127;SDS011;13107;51.304;6.866;2023-04-15T20:09:15;12.63;;;5.87;;
25127;SDS011;13107;51.304;6.866;2023-04-15T20:13:17;13.07;;;5.45;;
25127;SDS011;13107;51.304;6.866;2023-04-15T20:17:19;10.32;;;5.20;;
25127;SDS011;13107;51.304;6.866;2023-04-15T20:21:20;12.55;;;5.35;;
25127;SDS011;13107;51.304;6.866;2023-04-15T20:25:22;11.50;;;6.30;;
25127;SDS011;13107;51.304;6.866;2023-04-15T20:29:24;14.65;;;6.07;;
25127;SDS011;13107;51.304;6.866;2023-04-15T20:33:25;12.52;;;5.53;;
25127;SDS011;13107;51.304;6.866;2023-04-15T20:37:28;11.80;;;5.45;;
25127;SDS011;13107;51.304;6.866;2023-04-15T20:41:30;9.57;;;4.50;;
25127;SDS011;13107;51.304;6.866;2023-04-15T20:45:32;8.15;;;4.37;;
25127;SDS011;13107;51.304;6.866;2023-04-15T20:49:34;8.43;;;4.55;;
25127;SDS011;13107;51.304;6.866;2023-04-15T20:53:38;8.35;;;5.18;;
25127;SDS011;13107;51.304;6.866;2023-04-15T20:57:41;14.02;;;8.30;;
25127;SDS011;13107;51.304;6.866;2023-04-15T21:01:43;13.20;;;8.82;;
25127;SDS011;13107;51.304;6.866;2023-04-15T21:05:46;13.00;;;8.85;;
25127;SDS011;13107;51.304;6.866;2023-04-15T21:09:47;22.87;;;8.93;;
25127;SDS011;13107;51.304;6.866;2023-04-15T21:13:49;19.25;;;9.60;;
25127;SDS011;13107;51.304;6.866;2023-04-15T21:17:51;19.67;;;11.18;;
25127;SDS011;13107;51.304;6.866;2023-04-15T21:21:53;19.42;;;10.10;;
25127;SDS011;13107;51.304;6.866;2023-04-15T21:25:55;22.90;;;10.05;;
25127;SDS011;13107;51.304;6.866;2023-04-15T21:30:06;13.80;;;7.53;;
25127;SDS011;13107;51.304;6.866;2023-04-15T21:34:08;12.13;;;7.93;;
25127;SDS011;13107;51.304;6.866;2023-04-15T21:38:10;16.23;;;9.23;;
25127;SDS011;13107;51.304;6.866;2023-04-15T21:42:12;24.55;;;10.60;;
25127;SDS011;13107;51.304;6.866;2023-04-15T21:46:14;21.60;;;12.18;;
25127;SDS011;13107;51.304;6.866;2023-04-15T21:50:25;17.77;;;10.82;;
25127;SDS011;13107;51.304;6.866;2023-04-15T21:54:27;19.92;;;12.20;;
25127;SDS011;13107;51.304;6.866;2023-04-15T21:58:31;23.50;;;13.90;;
25127;SDS011;13107;51.304;6.866;2023-04-15T22:02:32;28.23;;;15.65;;
25127;SDS011;13107;51.304;6.866;2023-04-15T22:06:34;30.55;;;17.73;;
25127;SDS011;13107;51.304;6.866;2023-04-15T22:10:36;34.28;;;19.33;;
25127;SDS011;13107;51.304;6.866;2023-04-15T22:14:39;33.13;;;19.42;;
25127;SDS011;13107;51.304;6.866;2023-04-15T22:18:40;34.58;;;20.67;;
25127;SDS011;13107;51.304;6.866;2023-04-15T22:22:42;32.08;;;18.92;;
25127;SDS011;13107;51.304;6.866;2023-04-15T22:26:45;34.17;;;18.58;;
25127;SDS011;13107;51.304;6.866;2023-04-15T22:30:47;29.65;;;18.02;;
25127;SDS011;13107;51.304;6.866;2023-04-15T22:34:48;31.02;;;19.08;;
25127;SDS011;13107;51.304;6.866;2023-04-15T22:38:50;33.38;;;19.50;;
25127;SDS011;13107;51.304;6.866;2023-04-15T22:42:52;26.92;;;18.08;;
25127;SDS011;13107;51.304;6.866;2023-04-15T22:46:53;28.60;;;20.58;;
25127;SDS011;13107;51.304;6.866;2023-04-15T22:50:55;32.03;;;20.15;;
25127;SDS011;13107;51.304;6.866;2023-04-15T22:54:57;33.22;;;21.50;;
25127;SDS011;13107;51.304;6.866;2023-04-15T22:58:59;37.78;;;22.77;;
25127;SDS011;13107;51.304;6.866;2023-04-15T23:03:01;39.30;;;24.10;;
25127;SDS011;13107;51.304;6.866;2023-04-15T23:07:03;41.85;;;26.23;;
25127;SDS011;13107;51.304;6.866;2023-04-15T23:11:05;36.08;;;24.75;;
25127;SDS011;13107;51.304;6.866;2023-04-15T23:15:07;39.30;;;25.77;;
25127;SDS011;13107;51.304;6.866;2023-04-15T23:19:09;45.53;;;29.52;;
25127;SDS011;13107;51.304;6.866;2023-04-15T23:23:11;46.42;;;31.00;;
25127;SDS011;13107;51.304;6.866;2023-04-15T23:27:13;46.78;;;30.88;;
25127;SDS011;13107;51.304;6.866;2023-04-15T23:31:15;41.63;;;29.05;;
25127;SDS011;13107;51.304;6.866;2023-04-15T23:35:17;53.08;;;33.15;;
25127;SDS011;13107;51.304;6.866;2023-04-15T23:39:18;48.78;;;31.15;;
25127;SDS011;13107;51.304;6.866;2023-04-15T23:43:20;46.13;;;29.87;;
25127;SDS011;13107;51.304;6.866;2023-04-15T23:47:22;43.50;;;29.40;;
25127;SDS011;13107;51.304;6.866;2023-04-15T23:51:24;39.05;;;26.55;;
25127;SDS011;13107;51.304;6.866;2023-04-15T23:55:26;39.53;;;26.00;;
25127;SDS011;13107;51.304;6.866;2023-04-15T23:59:27;41.80;;;26.35;;
